createdAt,value
2022-10-23T00:01:48.587Z,11.64
2022-10-23T00:04:21.048Z,11.64
2022-10-23T00:06:48.929Z,11.63
2022-10-23T00:09:21.257Z,11.63
2022-10-23T00:11:50.003Z,11.65
2022-10-23T00:14:18.939Z,11.65
2022-10-23T00:16:45.715Z,11.64
2022-10-23T00:19:14.601Z,11.59
2022-10-23T00:21:41.419Z,11.56
2022-10-23T00:26:44.476Z,11.57
2022-10-23T00:29:11.838Z,11.55
2022-10-23T00:31:43.197Z,11.56
2022-10-23T00:34:12.184Z,11.51
2022-10-23T00:36:44.338Z,11.53
2022-10-23T00:39:13.933Z,11.56
2022-10-23T00:41:40.538Z,11.54
2022-10-23T00:44:29.574Z,11.39
2022-10-23T00:46:58.952Z,11.29
2022-10-23T00:49:28.374Z,11.39
2022-10-23T00:52:05.295Z,11.37
2022-10-23T00:54:36.107Z,11.30
2022-10-23T00:57:05.929Z,11.34
2022-10-23T00:59:33.160Z,11.38
2022-10-23T01:02:00.613Z,11.36
2022-10-23T01:04:30.296Z,11.29
2022-10-23T01:07:09.416Z,11.38
2022-10-23T01:09:50.474Z,11.37
2022-10-23T01:12:36.140Z,11.38
2022-10-23T01:15:24.128Z,11.40
2022-10-23T01:17:51.083Z,11.41
2022-10-23T01:20:47.855Z,11.40
2022-10-23T01:23:32.287Z,11.40
2022-10-23T01:26:21.762Z,11.35
2022-10-23T01:29:08.993Z,11.43
2022-10-23T01:31:47.857Z,11.37
2022-10-23T01:34:28.220Z,11.32
2022-10-23T01:36:57.038Z,11.26
2022-10-23T01:39:37.637Z,11.42
2022-10-23T01:42:13.021Z,11.26
2022-10-23T01:44:48.032Z,11.36
2022-10-23T01:47:18.102Z,11.35
2022-10-23T01:49:46.786Z,11.31
2022-10-23T01:52:16.589Z,11.29
2022-10-23T01:54:46.416Z,11.18
2022-10-23T01:57:18.684Z,11.10
2022-10-23T01:59:53.086Z,11.06
2022-10-23T02:02:27.053Z,10.99
2022-10-23T02:05:03.368Z,10.79
2022-10-23T02:07:30.392Z,10.65
2022-10-23T02:09:59.110Z,10.68
2022-10-23T02:12:37.329Z,10.78
2022-10-23T02:15:09.251Z,10.75
2022-10-23T02:17:57.336Z,10.80
2022-10-23T02:20:36.139Z,10.85
2022-10-23T02:23:31.123Z,10.87
2022-10-23T02:26:13.395Z,10.90
2022-10-23T02:28:45.854Z,10.99
2022-10-23T02:31:19.818Z,10.96
2022-10-23T02:33:49.270Z,10.98
2022-10-23T02:36:19.185Z,11.04
2022-10-23T02:38:46.555Z,11.09
2022-10-23T02:41:28.333Z,11.08
2022-10-23T02:44:22.066Z,11.01
2022-10-23T02:47:06.632Z,11.07
2022-10-23T02:49:57.047Z,11.01
2022-10-23T02:52:32.640Z,11.04
2022-10-23T02:55:21.343Z,10.98
2022-10-23T02:58:21.672Z,11.02
2022-10-23T03:00:59.827Z,10.88
2022-10-23T03:03:31.791Z,11.00
2022-10-23T03:06:00.956Z,10.93
2022-10-23T03:08:27.526Z,11.00
2022-10-23T03:10:54.061Z,10.71
2022-10-23T03:13:20.818Z,10.73
2022-10-23T03:15:47.374Z,10.74
2022-10-23T03:18:18.619Z,10.83
2022-10-23T03:20:45.181Z,10.79
2022-10-23T03:23:15.734Z,10.98
2022-10-23T03:25:42.238Z,10.96
2022-10-23T03:28:08.795Z,10.85
2022-10-23T03:30:35.401Z,10.69
2022-10-23T03:33:04.333Z,10.65
2022-10-23T03:35:35.825Z,10.76
2022-10-23T03:38:04.575Z,10.82
2022-10-23T03:40:33.569Z,10.84
2022-10-23T03:43:04.746Z,10.82
2022-10-23T03:45:33.632Z,10.93
2022-10-23T03:48:00.195Z,11.03
2022-10-23T03:50:26.691Z,11.00
2022-10-23T03:52:55.530Z,10.92
2022-10-23T03:55:25.721Z,10.92
2022-10-23T03:57:52.557Z,10.98
2022-10-23T04:00:21.555Z,10.97
2022-10-23T04:02:50.494Z,11.06
2022-10-23T04:05:19.539Z,11.08
2022-10-23T04:07:46.103Z,11.12
2022-10-23T04:10:12.881Z,11.05
2022-10-23T04:12:39.596Z,11.05
2022-10-23T04:15:07.079Z,11.14
2022-10-23T04:17:33.598Z,11.10
2022-10-23T04:20:02.755Z,11.06
2022-10-23T04:22:31.654Z,11.18
2022-10-23T04:24:58.507Z,11.11
2022-10-23T04:27:27.272Z,11.14
2022-10-23T04:29:58.336Z,10.93
2022-10-23T04:32:28.032Z,11.12
2022-10-23T04:34:54.655Z,11.11
2022-10-23T04:37:21.203Z,11.03
2022-10-23T04:39:48.132Z,11.06
2022-10-23T04:42:19.506Z,11.03
2022-10-23T04:44:46.126Z,11.02
2022-10-23T04:47:12.633Z,11.09
2022-10-23T04:49:39.286Z,11.14
2022-10-23T04:52:05.887Z,11.15
2022-10-23T04:54:41.613Z,11.27
2022-10-23T04:57:08.162Z,10.92
2022-10-23T04:59:34.831Z,11.07
2022-10-23T05:02:01.366Z,11.10
2022-10-23T05:04:28.110Z,10.97
2022-10-23T05:06:59.964Z,11.07
2022-10-23T05:09:28.736Z,11.21
2022-10-23T05:11:57.493Z,10.98
2022-10-23T05:14:24.020Z,11.10
2022-10-23T05:17:07.246Z,11.22
2022-10-23T05:19:40.693Z,11.15
2022-10-23T05:22:07.664Z,11.24
2022-10-23T05:24:36.721Z,11.32
2022-10-23T05:27:03.309Z,11.13
2022-10-23T05:29:32.193Z,11.25
2022-10-23T05:32:03.209Z,11.32
2022-10-23T05:34:33.041Z,11.32
2022-10-23T05:36:59.624Z,11.38
2022-10-23T05:39:28.830Z,11.28
2022-10-23T05:42:00.322Z,11.27
2022-10-23T05:44:26.962Z,11.24
2022-10-23T05:46:53.486Z,11.21
2022-10-23T05:49:22.329Z,11.26
2022-10-23T05:51:48.863Z,11.24
2022-10-23T05:54:17.958Z,11.15
2022-10-23T05:56:44.501Z,11.24
2022-10-23T05:59:11.068Z,11.20
2022-10-23T06:01:37.750Z,11.25
2022-10-23T06:04:07.740Z,11.32
2022-10-23T06:06:36.820Z,11.36
2022-10-23T06:09:04.225Z,11.44
2022-10-23T06:11:30.804Z,11.44
2022-10-23T06:14:01.005Z,11.42
2022-10-23T06:16:30.084Z,11.47
2022-10-23T06:18:57.491Z,11.42
2022-10-23T06:21:27.107Z,11.38
2022-10-23T06:23:57.288Z,11.48
2022-10-23T06:26:23.877Z,11.49
2022-10-23T06:28:53.424Z,11.42
2022-10-23T06:31:20.500Z,11.46
2022-10-23T06:33:47.002Z,11.46
2022-10-23T06:36:16.017Z,11.46
2022-10-23T06:38:42.590Z,11.46
2022-10-23T06:41:22.797Z,11.46
2022-10-23T06:43:55.272Z,11.45
2022-10-23T06:46:22.347Z,11.36
2022-10-23T06:48:53.758Z,11.42
2022-10-23T06:51:22.706Z,11.42
2022-10-23T06:53:49.647Z,11.44
2022-10-23T06:56:18.645Z,11.46
2022-10-23T06:58:47.866Z,11.49
2022-10-23T07:01:16.372Z,11.50
2022-10-23T07:03:46.208Z,11.53
2022-10-23T07:06:12.793Z,11.48
2022-10-23T07:08:39.369Z,11.39
2022-10-23T07:11:13.152Z,11.47
2022-10-23T07:13:40.517Z,11.53
2022-10-23T07:16:20.938Z,11.52
2022-10-23T07:18:49.156Z,11.55
2022-10-23T07:21:16.187Z,11.53
2022-10-23T07:23:45.088Z,11.52
2022-10-23T07:26:15.315Z,11.56
2022-10-23T07:28:48.844Z,11.51
2022-10-23T07:31:18.381Z,11.24
2022-10-23T07:33:47.180Z,11.18
2022-10-23T07:36:14.199Z,11.02
2022-10-23T07:38:43.223Z,11.18
2022-10-23T07:41:12.296Z,11.12
2022-10-23T07:43:39.673Z,11.18
2022-10-23T07:46:08.284Z,11.14
2022-10-23T07:48:37.951Z,11.12
2022-10-23T07:51:08.582Z,11.29
2022-10-23T07:53:38.164Z,11.26
2022-10-23T07:56:17.602Z,11.56
2022-10-23T07:58:44.780Z,11.58
2022-10-23T08:01:27.912Z,11.53
2022-10-23T08:03:56.772Z,11.35
2022-10-23T08:06:23.533Z,11.40
2022-10-23T08:08:52.367Z,11.49
2022-10-23T08:11:25.854Z,11.39
2022-10-23T08:13:54.287Z,11.47
2022-10-23T08:16:27.389Z,11.38
2022-10-23T08:18:58.734Z,11.40
2022-10-23T08:21:25.292Z,11.28
2022-10-23T08:23:56.583Z,11.32
2022-10-23T08:26:24.690Z,11.55
2022-10-23T08:28:55.198Z,11.46
2022-10-23T08:31:22.831Z,11.42
2022-10-23T08:36:33.498Z,11.57
2022-10-23T08:39:02.492Z,11.48
2022-10-23T08:41:49.982Z,11.63
2022-10-23T08:44:55.217Z,11.64
2022-10-23T08:47:34.075Z,11.49
2022-10-23T08:50:06.261Z,11.55
2022-10-23T08:53:11.545Z,11.53
2022-10-23T08:55:45.953Z,11.76
2022-10-23T08:58:29.657Z,11.76
2022-10-23T09:00:56.260Z,11.87
2022-10-23T09:03:25.140Z,11.73
2022-10-23T09:06:13.766Z,11.97
2022-10-23T09:08:54.229Z,12.03
2022-10-23T09:11:56.853Z,12.07
2022-10-23T09:14:53.873Z,11.78
2022-10-23T09:17:27.055Z,11.91
2022-10-23T09:20:16.408Z,11.93
2022-10-23T09:22:46.138Z,12.09
2022-10-23T09:25:25.570Z,12.08
2022-10-23T09:27:59.107Z,12.12
2022-10-23T09:30:40.698Z,12.06
2022-10-23T09:33:28.188Z,12.16
2022-10-23T09:36:03.189Z,12.05
2022-10-23T09:38:39.320Z,12.34
2022-10-23T09:41:17.762Z,12.12
2022-10-23T09:43:44.431Z,12.24
2022-10-23T09:46:12.004Z,11.98
2022-10-23T09:48:39.985Z,12.19
2022-10-23T09:51:21.313Z,12.11
2022-10-23T09:53:57.949Z,12.40
2022-10-23T09:56:34.988Z,12.29
2022-10-23T09:59:16.011Z,12.66
2022-10-23T10:01:53.028Z,12.34
2022-10-23T10:04:32.770Z,12.50
2022-10-23T10:07:03.639Z,12.35
2022-10-23T10:09:30.299Z,12.70
2022-10-23T10:12:16.737Z,12.31
2022-10-23T10:14:58.187Z,12.49
2022-10-23T10:17:43.298Z,12.54
2022-10-23T10:20:28.615Z,12.41
2022-10-23T10:23:05.894Z,12.53
2022-10-23T10:25:40.327Z,12.67
2022-10-23T10:28:27.565Z,12.83
2022-10-23T10:31:14.305Z,12.75
2022-10-23T10:33:43.547Z,12.65
2022-10-23T10:36:28.307Z,13.05
2022-10-23T10:39:11.773Z,13.38
2022-10-23T10:42:02.292Z,13.68
2022-10-23T10:44:46.952Z,14.07
2022-10-23T10:47:27.974Z,13.94
2022-10-23T10:49:54.473Z,13.85
2022-10-23T10:52:30.841Z,13.96
2022-10-23T10:55:11.746Z,14.53
2022-10-23T10:57:55.842Z,14.55
2022-10-23T11:00:32.405Z,13.98
2022-10-23T11:03:09.433Z,14.24
2022-10-23T11:05:44.499Z,14.27
2022-10-23T11:08:14.218Z,14.39
2022-10-23T11:10:46.503Z,14.28
2022-10-23T11:13:42.372Z,14.27
2022-10-23T11:16:14.718Z,14.46
2022-10-23T11:18:44.539Z,14.51
2022-10-23T11:21:35.688Z,14.37
2022-10-23T11:24:35.471Z,14.69
2022-10-23T11:27:17.344Z,14.70
2022-10-23T11:29:43.834Z,14.57
2022-10-23T11:35:20.369Z,14.71
2022-10-23T11:37:59.080Z,14.72
2022-10-23T11:40:26.235Z,14.93
2022-10-23T11:42:55.430Z,15.22
2022-10-23T11:45:31.499Z,15.33
2022-10-23T11:47:59.673Z,15.35
2022-10-23T11:50:30.195Z,15.38
2022-10-23T11:53:31.436Z,15.50
2022-10-23T11:56:06.806Z,15.34
2022-10-23T11:58:56.715Z,15.36
2022-10-23T12:01:26.241Z,15.36
2022-10-23T12:03:57.877Z,15.40
2022-10-23T12:06:34.349Z,15.55
2022-10-23T12:09:06.845Z,15.65
2022-10-23T12:11:47.002Z,15.64
2022-10-23T12:14:47.154Z,15.70
2022-10-23T12:17:23.159Z,15.66
2022-10-23T12:20:12.643Z,15.46
2022-10-23T12:23:04.214Z,15.26
2022-10-23T12:26:17.948Z,15.23
2022-10-23T12:29:19.397Z,15.38
2022-10-23T12:31:59.182Z,15.36
2022-10-23T12:34:42.299Z,15.38
2022-10-23T12:37:30.727Z,15.31
2022-10-23T12:39:59.554Z,15.48
2022-10-23T12:42:28.374Z,15.45
2022-10-23T12:45:19.842Z,15.44
2022-10-23T12:47:48.370Z,15.52
2022-10-23T12:50:26.988Z,15.48
2022-10-23T12:53:01.798Z,15.43
2022-10-23T12:55:33.602Z,15.37
2022-10-23T12:58:18.450Z,15.50
2022-10-23T13:00:57.104Z,15.74
2022-10-23T13:03:26.493Z,15.59
2022-10-23T13:05:55.769Z,15.47
2022-10-23T13:08:23.365Z,15.44
2022-10-23T13:10:51.095Z,15.62
2022-10-23T13:13:23.305Z,15.66
2022-10-23T13:15:50.631Z,15.77
2022-10-23T13:18:19.446Z,15.99
2022-10-23T13:20:51.985Z,15.85
2022-10-23T13:23:27.975Z,15.93
2022-10-23T13:26:21.911Z,15.88
2022-10-23T13:28:51.246Z,16.08
2022-10-23T13:31:17.719Z,16.22
2022-10-23T13:33:52.695Z,16.20
2022-10-23T13:36:22.962Z,16.33
2022-10-23T13:39:13.646Z,16.27
2022-10-23T13:41:49.109Z,16.27
2022-10-23T13:44:20.055Z,16.28
2022-10-23T13:46:48.461Z,16.09
2022-10-23T13:49:18.285Z,16.12
2022-10-23T13:51:49.829Z,16.06
2022-10-23T13:54:30.288Z,16.20
2022-10-23T13:56:57.305Z,16.41
2022-10-23T13:59:24.168Z,16.55
2022-10-23T14:01:54.355Z,16.78
2022-10-23T14:04:21.319Z,16.73
2022-10-23T14:06:47.899Z,16.62
2022-10-23T14:09:16.813Z,16.67
2022-10-23T14:11:45.772Z,16.53
2022-10-23T14:14:12.463Z,16.48
2022-10-23T14:16:41.331Z,16.49
2022-10-23T14:19:10.813Z,16.40
2022-10-23T14:21:38.669Z,16.24
2022-10-23T14:24:05.439Z,15.98
2022-10-23T14:26:32.846Z,15.92
2022-10-23T14:29:02.433Z,16.04
2022-10-23T14:31:34.137Z,15.98
2022-10-23T14:34:01.760Z,15.95
2022-10-23T14:36:38.522Z,15.90
2022-10-23T14:39:16.179Z,15.89
2022-10-23T14:41:47.925Z,15.93
2022-10-23T14:44:14.637Z,15.91
2022-10-23T14:46:41.526Z,15.84
2022-10-23T14:49:08.006Z,15.80
2022-10-23T14:51:35.341Z,15.74
2022-10-23T14:54:05.009Z,15.67
2022-10-23T14:56:39.446Z,15.64
2022-10-23T14:59:10.845Z,15.64
2022-10-23T15:01:45.429Z,15.56
2022-10-23T15:04:15.281Z,15.59
2022-10-23T15:06:45.099Z,15.59
2022-10-23T15:09:14.534Z,15.59
2022-10-23T15:11:45.946Z,15.65
2022-10-23T15:14:13.218Z,15.67
2022-10-23T15:16:42.114Z,15.77
2022-10-23T15:19:18.430Z,15.86
2022-10-23T15:21:48.922Z,15.93
2022-10-23T15:24:16.874Z,15.98
2022-10-23T15:26:44.036Z,16.01
2022-10-23T15:29:14.783Z,16.07
2022-10-23T15:31:45.942Z,16.06
2022-10-23T15:34:21.644Z,16.07
2022-10-23T15:36:51.851Z,15.97
2022-10-23T15:39:24.701Z,15.94
2022-10-23T15:41:58.378Z,15.80
2022-10-23T15:44:26.818Z,15.69
2022-10-23T15:46:53.757Z,15.55
2022-10-23T15:49:20.435Z,15.54
2022-10-23T15:51:47.686Z,15.51
2022-10-23T15:54:17.190Z,15.42
2022-10-23T15:56:45.106Z,15.36
2022-10-23T15:59:12.525Z,15.28
2022-10-23T16:01:39.310Z,15.20
2022-10-23T16:04:06.043Z,15.20
2022-10-23T16:06:32.873Z,15.16
2022-10-23T16:08:59.976Z,15.13
2022-10-23T16:11:31.357Z,15.04
2022-10-23T16:13:59.539Z,14.99
2022-10-23T16:16:30.362Z,14.97
2022-10-23T16:19:00.457Z,14.92
2022-10-23T16:21:32.596Z,14.85
2022-10-23T16:24:06.742Z,14.82
2022-10-23T16:26:34.343Z,14.79
2022-10-23T16:29:03.896Z,14.79
2022-10-23T16:31:30.601Z,14.72
2022-10-23T16:33:58.986Z,14.71
2022-10-23T16:36:26.201Z,14.69
2022-10-23T16:38:55.075Z,14.74
2022-10-23T16:41:21.636Z,14.74
2022-10-23T16:43:48.305Z,14.73
2022-10-23T16:46:18.118Z,14.68
2022-10-23T16:48:44.705Z,14.67
2022-10-23T16:51:19.458Z,14.65
2022-10-23T16:53:49.214Z,14.65
2022-10-23T16:56:21.203Z,14.63
2022-10-23T16:58:51.050Z,14.58
2022-10-23T17:01:22.910Z,14.58
2022-10-23T17:03:51.737Z,14.59
2022-10-23T17:06:34.925Z,14.56
2022-10-23T17:09:05.235Z,14.57
2022-10-23T17:11:34.813Z,14.55
2022-10-23T17:14:07.540Z,14.59
2022-10-23T17:16:46.117Z,14.55
2022-10-23T17:19:33.044Z,14.58
2022-10-23T17:22:10.496Z,14.60
2022-10-23T17:24:40.701Z,14.62
2022-10-23T17:27:09.937Z,14.60
2022-10-23T17:29:38.993Z,14.60
2022-10-23T17:32:12.827Z,14.61
2022-10-23T17:34:39.445Z,14.58
2022-10-23T17:37:06.029Z,14.56
2022-10-23T17:39:32.596Z,14.58
2022-10-23T17:42:04.870Z,14.58
2022-10-23T17:44:36.676Z,14.56
2022-10-23T17:47:03.283Z,14.58
2022-10-23T17:49:29.862Z,14.54
2022-10-23T17:51:59.242Z,14.57
2022-10-23T17:54:26.983Z,14.55
2022-10-23T17:56:53.558Z,14.54
2022-10-23T17:59:23.028Z,14.54
2022-10-23T18:01:52.255Z,14.52
2022-10-23T18:04:20.565Z,14.52
2022-10-23T18:06:55.400Z,14.51
2022-10-23T18:09:22.618Z,14.48
2022-10-23T18:11:52.843Z,14.49
2022-10-23T18:14:22.367Z,14.49
2022-10-23T18:16:52.587Z,14.46
2022-10-23T18:19:21.789Z,14.47
2022-10-23T18:21:51.144Z,14.47
2022-10-23T18:24:20.458Z,14.49
2022-10-23T18:26:50.323Z,14.48
2022-10-23T18:29:19.229Z,14.46
2022-10-23T18:31:50.865Z,14.45
2022-10-23T18:34:20.982Z,14.42
2022-10-23T18:36:53.851Z,14.46
2022-10-23T18:39:22.857Z,14.40
2022-10-23T18:41:53.127Z,14.45
2022-10-23T18:44:23.107Z,14.44
2022-10-23T18:46:52.217Z,14.37
2022-10-23T18:49:22.491Z,14.44
2022-10-23T18:51:52.731Z,14.44
2022-10-23T18:54:21.034Z,14.42
2022-10-23T18:56:50.526Z,14.40
2022-10-23T18:59:21.436Z,14.42
2022-10-23T19:01:51.483Z,14.41
2022-10-23T19:04:20.508Z,14.41
2022-10-23T19:06:48.810Z,14.39
2022-10-23T19:09:16.293Z,14.40
2022-10-23T19:11:47.605Z,14.38
2022-10-23T19:14:17.071Z,14.35
2022-10-23T19:17:04.560Z,14.38
2022-10-23T19:19:40.675Z,14.38
2022-10-23T19:22:08.892Z,14.36
2022-10-23T19:24:43.951Z,14.38
2022-10-23T19:27:11.157Z,14.37
2022-10-23T19:29:45.115Z,14.42
2022-10-23T19:32:12.258Z,14.46
2022-10-23T19:34:40.984Z,14.46
2022-10-23T19:37:10.658Z,14.33
2022-10-23T19:39:37.358Z,14.47
2022-10-23T19:42:09.010Z,14.43
2022-10-23T19:44:35.616Z,14.45
2022-10-23T19:47:04.674Z,14.42
2022-10-23T19:49:31.281Z,14.50
2022-10-23T19:51:58.175Z,14.48
2022-10-23T19:54:27.190Z,14.46
2022-10-23T19:56:57.181Z,14.50
2022-10-23T19:59:24.022Z,14.52
2022-10-23T20:01:52.883Z,14.46
2022-10-23T20:04:19.649Z,14.50
2022-10-23T20:06:48.868Z,14.49
2022-10-23T20:09:18.011Z,14.49
2022-10-23T20:11:45.312Z,14.46
2022-10-23T20:14:12.765Z,14.50
2022-10-23T20:16:46.361Z,14.47
2022-10-23T20:21:49.245Z,14.49
2022-10-23T20:24:20.245Z,14.49
2022-10-23T20:26:53.974Z,14.45
2022-10-23T20:29:23.941Z,14.45
2022-10-23T20:31:55.256Z,14.40
2022-10-23T20:34:24.725Z,14.37
2022-10-23T20:36:51.913Z,14.43
2022-10-23T20:39:29.859Z,14.38
2022-10-23T20:42:00.347Z,14.47
2022-10-23T20:44:27.274Z,14.45
2022-10-23T20:46:56.646Z,14.39
2022-10-23T20:49:23.551Z,14.34
2022-10-23T20:51:57.233Z,14.41
2022-10-23T20:54:25.871Z,14.37
2022-10-23T20:56:52.542Z,14.35
2022-10-23T20:59:19.735Z,14.35
2022-10-23T21:01:53.445Z,14.29
2022-10-23T21:04:22.670Z,14.34
2022-10-23T21:07:10.679Z,14.31
2022-10-23T21:09:39.226Z,14.22
2022-10-23T21:12:06.690Z,14.21
2022-10-23T21:14:33.803Z,14.17
2022-10-23T21:17:00.826Z,14.16
2022-10-23T21:19:32.169Z,14.16
2022-10-23T21:21:58.709Z,14.12
2022-10-23T21:24:25.300Z,14.17
2022-10-23T21:26:52.271Z,14.09
2022-10-23T21:29:21.083Z,14.13
2022-10-23T21:31:56.104Z,14.12
2022-10-23T21:34:27.244Z,14.07
2022-10-23T21:37:14.114Z,14.08
2022-10-23T21:39:42.840Z,14.02
2022-10-23T21:42:12.219Z,13.95
2022-10-23T21:44:43.613Z,13.91
2022-10-23T21:47:15.127Z,13.91
2022-10-23T21:49:46.889Z,13.86
2022-10-23T21:52:19.014Z,13.86
2022-10-23T21:54:52.245Z,13.83
2022-10-23T21:57:19.538Z,13.85
2022-10-23T21:59:48.387Z,13.84
2022-10-23T22:02:17.276Z,13.83
2022-10-23T22:04:46.043Z,13.83
2022-10-23T22:07:15.400Z,13.80
2022-10-23T22:09:44.539Z,13.85
2022-10-23T22:12:13.284Z,13.83
2022-10-23T22:14:42.607Z,13.82
2022-10-23T22:17:11.372Z,13.85
2022-10-23T22:19:40.924Z,13.83
2022-10-23T22:22:10.007Z,13.89
2022-10-23T22:24:39.526Z,13.77
2022-10-23T22:27:06.168Z,13.89
2022-10-23T22:29:32.727Z,13.89
2022-10-23T22:32:01.491Z,13.93
2022-10-23T22:37:16.706Z,13.91
2022-10-23T22:39:43.787Z,13.91
2022-10-23T22:42:10.361Z,13.91
2022-10-23T22:44:36.946Z,13.92
2022-10-23T22:47:03.641Z,13.90
2022-10-23T22:49:30.180Z,13.78
2022-10-23T22:51:59.172Z,13.83
2022-10-23T22:54:31.384Z,13.74
2022-10-23T22:57:02.785Z,13.82
2022-10-23T22:59:29.454Z,13.76
2022-10-23T23:01:58.841Z,13.79
2022-10-23T23:04:37.854Z,13.77
2022-10-23T23:07:11.707Z,13.71
2022-10-23T23:09:40.321Z,13.81
2022-10-23T23:12:08.680Z,13.74
2022-10-23T23:14:35.188Z,13.74
2022-10-23T23:17:02.376Z,13.74
2022-10-23T23:19:31.186Z,13.74
2022-10-23T23:22:01.458Z,13.73
2022-10-23T23:24:28.138Z,13.81
2022-10-23T23:26:54.672Z,13.82
2022-10-23T23:29:21.779Z,13.82
2022-10-23T23:31:48.381Z,13.78
2022-10-23T23:34:14.876Z,13.80
2022-10-23T23:36:41.408Z,13.77
2022-10-23T23:39:10.560Z,13.75
2022-10-23T23:41:42.244Z,13.76
2022-10-23T23:44:10.090Z,13.74
2022-10-23T23:46:41.224Z,13.72
2022-10-23T23:49:08.132Z,13.75
2022-10-23T23:51:35.199Z,13.68
2022-10-23T23:54:04.714Z,13.69
2022-10-23T23:56:33.874Z,13.64
2022-10-23T23:59:00.513Z,13.66
